Time;durP1;ratioP1;P1;durP2;ratioP2;P2;SDS_P1;SDS_P2;PMS_P1;PMS_P2;Temp;Humidity;BMP_temperature;BMP_pressure;BME280_temperature;BME280_humidity;BME280_pressure;Samples;Min_cycle;Max_cycle;Signal;HPM_P1;HPM_P2
2022/05/05 00:01:50;;;;;;;0.00;0.00;;;;;;;17.03;51.92;101667.50;7358603;19;20048;-60
2022/05/05 00:04:15;;;;;;;0.05;0.05;;;;;;;17.00;52.41;101673.75;7355828;19;20074;-59
2022/05/05 00:06:41;;;;;;;0.00;0.00;;;;;;;16.98;52.61;101672.97;7357984;19;20034;-60
2022/05/05 00:09:06;;;;;;;0.00;0.00;;;;;;;16.92;52.68;101667.88;7358576;19;20407;-59
2022/05/05 00:14:28;;;;;;;0.00;0.00;;;;;;;16.95;52.87;101672.19;7357495;19;20597;-60
2022/05/05 00:17:08;;;;;;;0.00;0.00;;;;;;;16.93;53.29;101681.91;7359397;19;20114;-60
2022/05/05 00:19:35;;;;;;;0.05;0.05;;;;;;;16.90;52.93;101684.66;7358543;19;20717;-60
2022/05/05 00:22:02;;;;;;;0.00;0.00;;;;;;;16.86;52.87;101676.84;7357732;19;20074;-59
2022/05/05 00:24:27;;;;;;;0.00;0.00;;;;;;;16.84;53.60;101689.25;7359419;19;20015;-60
2022/05/05 00:26:53;;;;;;;0.00;0.00;;;;;;;16.75;53.78;101663.16;7357315;19;20042;-60
2022/05/05 00:29:20;;;;;;;0.00;0.00;;;;;;;16.85;54.06;101680.41;7359435;19;20025;-60
2022/05/05 00:31:47;;;;;;;0.03;0.03;;;;;;;16.85;53.72;101675.13;7357539;19;20022;-60
2022/05/05 00:34:13;;;;;;;0.10;0.10;;;;;;;16.84;53.56;101678.69;7358160;19;20006;-60
2022/05/05 00:36:39;;;;;;;0.00;0.00;;;;;;;16.85;53.38;101684.81;7356298;19;20377;-60
2022/05/05 00:39:06;;;;;;;0.10;0.10;;;;;;;16.81;53.89;101688.47;7359038;19;20006;-60
2022/05/05 00:41:35;;;;;;;0.00;0.00;;;;;;;16.77;53.45;101681.56;7356404;19;20015;-60
2022/05/05 00:44:05;;;;;;;0.00;0.00;;;;;;;16.69;53.94;101673.88;7357146;19;20030;-60
2022/05/05 00:46:31;;;;;;;0.00;0.00;;;;;;;16.70;54.62;101680.00;7358527;19;20030;-60
2022/05/05 00:48:57;;;;;;;0.00;0.00;;;;;;;16.69;54.10;101681.78;7356434;19;20006;-60
2022/05/05 00:51:23;;;;;;;0.00;0.00;;;;;;;16.56;54.48;101668.13;7358912;19;20029;-60
2022/05/05 00:53:49;;;;;;;0.00;0.00;;;;;;;16.64;54.32;101683.72;7358921;19;20038;-60
2022/05/05 00:56:16;;;;;;;0.00;0.00;;;;;;;16.62;54.89;101682.88;7359390;19;20756;-59
2022/05/05 00:58:44;;;;;;;0.00;0.00;;;;;;;16.60;54.77;101679.44;7364667;19;20009;-61
2022/05/05 01:01:09;;;;;;;;;;;;;;;16.57;52.18;101677.78;7366186;19;20097;-59
2022/05/05 01:03:36;;;;;;;0.00;0.00;;;;;;;16.53;54.81;101683.22;7356592;19;19994;-60
2022/05/05 01:06:06;;;;;;;0.00;0.00;;;;;;;16.52;54.32;101678.81;7355527;19;20022;-59
2022/05/05 01:08:35;;;;;;;0.00;0.00;;;;;;;16.46;54.94;101676.38;7358068;19;20007;-60
2022/05/05 01:11:01;;;;;;;0.00;0.00;;;;;;;16.38;55.60;101673.16;7352362;19;20303;-59
2022/05/05 01:13:27;;;;;;;0.00;0.00;;;;;;;16.29;55.22;101669.00;7356421;19;20011;-60
2022/05/05 01:15:54;;;;;;;0.10;0.10;;;;;;;16.20;55.71;101678.06;7355672;19;20113;-61
2022/05/05 01:18:20;;;;;;;0.05;0.05;;;;;;;16.09;55.31;101673.13;7356442;19;20463;-60
2022/05/05 01:20:47;;;;;;;0.00;0.00;;;;;;;16.07;56.08;101682.00;7358635;19;20014;-59
2022/05/05 01:23:14;;;;;;;0.00;0.00;;;;;;;15.99;56.03;101681.34;7351125;19;20898;-60
2022/05/05 01:28:25;;;;;;;0.00;0.00;;;;;;;15.86;56.71;101685.22;7358398;19;20078;-61
2022/05/05 01:30:51;;;;;;;0.00;0.00;;;;;;;15.79;56.22;101690.69;7360045;19;20049;-60
2022/05/05 01:33:19;;;;;;;0.10;0.10;;;;;;;15.73;56.84;101688.22;7358988;19;20021;-61
2022/05/05 01:35:47;;;;;;;0.00;0.00;;;;;;;15.67;57.35;101685.78;7356431;19;20660;-60
2022/05/05 01:38:18;;;;;;;0.10;0.10;;;;;;;15.61;57.16;101675.34;7359285;19;20025;-59
2022/05/05 01:40:46;;;;;;;0.00;0.00;;;;;;;15.56;57.76;101679.88;7360300;19;20652;-60
2022/05/05 01:43:12;;;;;;;0.00;0.00;;;;;;;15.56;57.37;101682.50;7359485;19;20038;-60
2022/05/05 01:45:38;;;;;;;0.00;0.00;;;;;;;15.55;56.64;101680.78;7360306;19;20762;-59
2022/05/05 01:48:04;;;;;;;0.10;0.10;;;;;;;15.52;57.00;101678.28;7362258;19;20022;-60
2022/05/05 01:50:31;;;;;;;0.00;0.00;;;;;;;15.47;57.74;101675.75;7358261;19;20017;-60
2022/05/05 01:52:56;;;;;;;0.00;0.00;;;;;;;15.44;57.27;101683.72;7359754;19;20014;-60
2022/05/05 01:55:22;;;;;;;0.00;0.00;;;;;;;15.41;57.82;101685.56;7360629;19;20040;-60
2022/05/05 01:57:49;;;;;;;0.00;0.00;;;;;;;15.37;57.39;101682.19;7357273;19;20099;-60
2022/05/05 02:00:15;;;;;;;0.00;0.00;;;;;;;15.35;57.85;101685.75;7355824;19;20046;-62
2022/05/05 02:02:42;;;;;;;0.08;0.08;;;;;;;15.32;57.81;101684.94;7356938;19;20010;-60
2022/05/05 02:05:09;;;;;;;0.00;0.00;;;;;;;15.26;57.95;101685.09;7357491;19;20005;-60
2022/05/05 02:07:35;;;;;;;0.00;0.00;;;;;;;15.27;58.05;101686.81;7357127;19;20003;-60
2022/05/05 02:10:03;;;;;;;0.00;0.00;;;;;;;15.26;58.11;101690.38;7357163;19;20019;-60
2022/05/05 02:12:30;;;;;;;0.00;0.00;;;;;;;15.25;58.12;101687.75;7358743;19;20812;-60
2022/05/05 02:14:55;;;;;;;0.00;0.00;;;;;;;15.22;58.40;101683.44;7357458;19;20022;-59
2022/05/05 02:17:21;;;;;;;0.00;0.00;;;;;;;15.16;58.58;101680.97;7358464;19;20489;-59
2022/05/05 02:19:47;;;;;;;0.00;0.00;;;;;;;15.19;58.60;101687.91;7357779;19;20836;-59
2022/05/05 02:22:12;;;;;;;0.00;0.00;;;;;;;15.19;58.08;101693.19;7357684;19;20752;-60
2022/05/05 02:24:38;;;;;;;0.00;0.00;;;;;;;15.02;58.20;101665.53;7357791;19;20701;-57
2022/05/05 02:27:04;;;;;;;0.08;0.08;;;;;;;15.15;58.19;101689.75;7358013;19;20021;-60
2022/05/05 02:29:30;;;;;;;0.00;0.00;;;;;;;15.12;58.62;101691.63;7358424;19;20691;-60
2022/05/05 02:31:55;;;;;;;0.00;0.00;;;;;;;15.08;58.58;101685.56;7359259;19;20011;-60
2022/05/05 02:34:21;;;;;;;0.00;0.00;;;;;;;15.05;58.59;101686.53;7359365;19;20007;-60
2022/05/05 02:39:30;;;;;;;0.00;0.00;;;;;;;14.99;58.22;101680.53;7359722;19;20005;-60
2022/05/05 02:41:56;;;;;;;0.00;0.00;;;;;;;14.95;58.18;101686.78;7361408;19;20011;-60
2022/05/05 02:44:21;;;;;;;0.00;0.00;;;;;;;14.87;58.36;101676.47;7357701;19;20021;-60
2022/05/05 02:46:46;;;;;;;0.00;0.00;;;;;;;14.89;58.66;101694.81;7360388;19;20010;-60
2022/05/05 02:49:13;;;;;;;0.00;0.00;;;;;;;14.86;58.47;101694.91;7361482;19;21012;-59
2022/05/05 02:51:38;;;;;;;0.10;0.10;;;;;;;14.76;58.43;101679.34;7366794;19;20010;-59
2022/05/05 02:56:48;;;;;;;0.00;0.00;;;;;;;14.58;58.96;101673.66;7367159;19;20042;-60
2022/05/05 02:59:14;;;;;;;0.00;0.00;;;;;;;14.65;58.60;101691.00;7367119;19;20006;-59
2022/05/05 03:01:39;;;;;;;0.00;0.00;;;;;;;14.61;58.11;101690.25;7362187;19;20011;-59
2022/05/05 03:04:05;;;;;;;0.00;0.00;;;;;;;14.57;58.93;101692.97;7362520;19;20021;-60
2022/05/05 03:06:30;;;;;;;0.03;0.03;;;;;;;14.53;58.90;101692.16;7362796;19;20003;-61
2022/05/05 03:08:55;;;;;;;0.00;0.00;;;;;;;14.47;58.72;101693.19;7364709;19;20013;-60
2022/05/05 03:11:21;;;;;;;0.00;0.00;;;;;;;14.41;59.22;101692.44;7366231;19;20026;-59
2022/05/05 03:13:46;;;;;;;0.00;0.00;;;;;;;14.38;57.94;101700.38;7362195;19;20014;-60
2022/05/05 03:16:11;;;;;;;0.00;0.00;;;;;;;14.30;59.73;101690.06;7365014;19;20015;-59
2022/05/05 03:18:40;;;;;;;0.08;0.08;;;;;;;14.28;59.19;101697.94;7357879;19;20014;-60
2022/05/05 03:21:06;;;;;;;0.00;0.00;;;;;;;14.23;59.70;101697.19;7359999;19;20018;-59
2022/05/05 03:23:31;;;;;;;0.00;0.00;;;;;;;14.20;59.54;101694.63;7361296;19;20078;-60
2022/05/05 03:25:57;;;;;;;0.00;0.00;;;;;;;14.17;58.99;101694.69;7365230;19;20625;-60
2022/05/05 03:28:22;;;;;;;0.00;0.00;;;;;;;14.10;58.89;101687.84;7362948;19;20030;-60
2022/05/05 03:30:49;;;;;;;0.10;0.10;;;;;;;14.07;59.38;101698.41;7365186;19;20007;-60
2022/05/05 03:33:14;;;;;;;0.00;0.00;;;;;;;14.02;59.82;101701.13;7364196;19;19999;-60
2022/05/05 03:35:40;;;;;;;0.10;0.10;;;;;;;13.98;59.35;101703.84;7361982;19;20013;-60
2022/05/05 03:38:05;;;;;;;0.00;0.00;;;;;;;13.92;59.96;101709.25;7366478;19;20006;-60
2022/05/05 03:40:31;;;;;;;0.00;0.00;;;;;;;13.90;59.71;101705.78;7364534;19;20034;-60
2022/05/05 03:42:57;;;;;;;0.00;0.00;;;;;;;13.83;59.42;101701.53;7364004;19;20019;-59
2022/05/05 03:45:22;;;;;;;0.00;0.00;;;;;;;13.81;60.20;101711.22;7363257;19;20019;-60
2022/05/05 03:47:48;;;;;;;0.00;0.00;;;;;;;13.77;59.65;101705.16;7365871;19;20471;-60
2022/05/05 03:50:14;;;;;;;0.00;0.00;;;;;;;13.71;60.78;101707.91;7364859;19;20014;-60
2022/05/05 03:52:39;;;;;;;0.00;0.00;;;;;;;13.65;60.57;101695.78;7364887;19;20017;-60
2022/05/05 03:55:05;;;;;;;0.00;0.00;;;;;;;13.64;61.04;101708.94;7364163;19;20026;-59
2022/05/05 03:57:30;;;;;;;0.00;0.00;;;;;;;13.62;60.93;101706.31;7364692;19;20812;-60
2022/05/05 03:59:56;;;;;;;0.00;0.00;;;;;;;13.60;59.97;101708.13;7364072;19;20017;-59
2022/05/05 04:02:21;;;;;;;0.00;0.00;;;;;;;13.57;60.97;101710.78;7362128;19;20042;-60
2022/05/05 04:04:47;;;;;;;0.00;0.00;;;;;;;13.55;60.80;101709.09;7361977;19;20010;-60
2022/05/05 04:07:12;;;;;;;0.00;0.00;;;;;;;13.42;60.83;101692.72;7363784;19;20513;-60
2022/05/05 04:09:38;;;;;;;0.00;0.00;;;;;;;13.50;61.20;101706.56;7361322;19;20019;-60
2022/05/05 04:12:04;;;;;;;0.00;0.00;;;;;;;13.47;61.34;101709.22;7363527;19;20041;-60
2022/05/05 04:14:29;;;;;;;0.00;0.00;;;;;;;13.46;61.29;101711.00;7361111;19;20771;-59
2022/05/05 04:16:54;;;;;;;0.00;0.00;;;;;;;13.45;61.40;101708.41;7364281;19;20012;-60
2022/05/05 04:19:20;;;;;;;0.00;0.00;;;;;;;13.44;61.61;101709.31;7361791;19;20015;-59
2022/05/05 04:21:45;;;;;;;0.00;0.00;;;;;;;13.44;61.53;101711.94;7364408;19;21019;-60
2022/05/05 04:24:10;;;;;;;0.00;0.00;;;;;;;13.41;61.23;101711.97;7362803;19;20030;-60
2022/05/05 04:26:36;;;;;;;0.05;0.05;;;;;;;13.41;61.50;101714.59;7365280;19;20017;-59
2022/05/05 04:29:03;;;;;;;0.00;0.00;;;;;;;13.42;61.19;101714.56;7361179;19;20323;-60
2022/05/05 04:31:29;;;;;;;0.00;0.00;;;;;;;13.40;60.99;101724.22;7361892;19;20010;-61
2022/05/05 04:33:55;;;;;;;0.00;0.00;;;;;;;13.28;61.60;101694.72;7363375;19;20167;-60
2022/05/05 04:36:21;;;;;;;0.00;0.00;;;;;;;13.29;61.56;101712.22;7365229;19;20011;-59
2022/05/05 04:38:46;;;;;;;0.00;0.00;;;;;;;13.33;61.71;101719.09;7362127;19;20036;-60
2022/05/05 04:41:11;;;;;;;0.00;0.00;;;;;;;13.32;61.18;101720.00;7362175;19;20066;-60
2022/05/05 04:43:37;;;;;;;0.10;0.10;;;;;;;13.31;61.45;101726.16;7362768;19;20557;-60
2022/05/05 04:46:02;;;;;;;0.00;0.00;;;;;;;13.27;62.07;101719.22;7363360;19;20011;-60
2022/05/05 04:48:28;;;;;;;0.08;0.08;;;;;;;13.25;61.61;101727.13;7363172;19;20006;-60
2022/05/05 04:50:53;;;;;;;0.00;0.00;;;;;;;13.22;62.06;101724.53;7363341;19;20720;-61
2022/05/05 04:53:19;;;;;;;0.08;0.08;;;;;;;13.21;62.12;101722.78;7363020;19;20023;-61
2022/05/05 04:55:44;;;;;;;0.00;0.00;;;;;;;13.08;61.80;101714.28;7359326;19;20014;-60
2022/05/05 04:58:09;;;;;;;0.10;0.10;;;;;;;13.13;62.49;101728.19;7363271;19;20743;-60
2022/05/05 05:00:36;;;;;;;0.00;0.00;;;;;;;13.18;62.30;101739.47;7360473;19;20502;-61
2022/05/05 05:03:01;;;;;;;0.00;0.00;;;;;;;13.18;62.41;101739.47;7362231;19;20006;-60
2022/05/05 05:05:27;;;;;;;0.00;0.00;;;;;;;13.18;62.12;101741.22;7363424;19;20954;-60
2022/05/05 05:07:52;;;;;;;0.00;0.00;;;;;;;13.11;62.59;101729.94;7362177;19;20010;-59
2022/05/05 05:10:18;;;;;;;0.00;0.00;;;;;;;13.17;62.40;101750.81;7363402;19;20022;-60
2022/05/05 05:12:44;;;;;;;0.00;0.00;;;;;;;13.17;62.42;101748.19;7362053;19;20011;-60
2022/05/05 05:15:10;;;;;;;0.00;0.00;;;;;;;13.16;62.54;101751.72;7363802;19;20022;-60
2022/05/05 05:17:35;;;;;;;0.00;0.00;;;;;;;13.16;62.68;101751.72;7363316;19;20101;-59
2022/05/05 05:20:01;;;;;;;0.00;0.00;;;;;;;13.16;62.49;101754.34;7362751;19;20039;-59
2022/05/05 05:22:26;;;;;;;0.05;0.05;;;;;;;13.05;62.88;101735.28;7360851;19;20033;-60
2022/05/05 05:24:52;;;;;;;0.00;0.00;;;;;;;13.15;63.20;101763.09;7362388;19;20120;-60
2022/05/05 05:27:17;;;;;;;0.00;0.00;;;;;;;13.14;62.66;101763.13;7362269;19;20351;-59
2022/05/05 05:29:43;;;;;;;0.00;0.00;;;;;;;13.16;62.35;101763.97;7362979;19;20030;-62
2022/05/05 05:32:08;;;;;;;0.00;0.00;;;;;;;13.16;63.16;101774.44;7362273;19;20037;-59
2022/05/05 05:34:34;;;;;;;0.00;0.00;;;;;;;13.17;63.21;101770.94;7362159;19;20371;-60
2022/05/05 05:36:59;;;;;;;0.00;0.00;;;;;;;13.16;62.66;101775.31;7361732;19;20589;-60
2022/05/05 05:39:25;;;;;;;0.00;0.00;;;;;;;13.12;63.32;101771.00;7362477;19;20451;-59
2022/05/05 05:41:51;;;;;;;0.00;0.00;;;;;;;13.19;63.12;101770.03;7360836;19;20041;-60
2022/05/05 05:44:17;;;;;;;0.00;0.00;;;;;;;13.22;63.27;101780.50;7362449;19;20022;-59
2022/05/05 05:46:42;;;;;;;0.00;0.00;;;;;;;13.25;63.05;101779.59;7359934;19;20015;-60
2022/05/05 05:49:09;;;;;;;0.00;0.00;;;;;;;13.25;63.42;101776.97;7362818;19;20026;-60
2022/05/05 05:51:35;;;;;;;0.00;0.00;;;;;;;13.28;63.56;101773.41;7359789;19;20010;-60
2022/05/05 05:54:00;;;;;;;0.00;0.00;;;;;;;13.33;62.65;101782.06;7362695;19;20614;-59
2022/05/05 05:56:26;;;;;;;0.00;0.00;;;;;;;13.19;63.28;101758.69;7360011;19;20018;-59
2022/05/05 05:58:51;;;;;;;0.00;0.00;;;;;;;13.38;63.45;101785.47;7361654;19;20038;-60
2022/05/05 06:01:17;;;;;;;0.08;0.08;;;;;;;13.41;63.26;101790.69;7360083;19;20010;-60
2022/05/05 06:03:54;;;;;;;0.00;0.00;;;;;;;13.44;63.39;101785.41;7360943;19;20014;-60
2022/05/05 06:06:21;;;;;;;0.00;0.00;;;;;;;13.48;63.42;101792.31;7358947;19;20011;-60
2022/05/05 06:08:47;;;;;;;0.00;0.00;;;;;;;13.40;62.95;101767.97;7358524;19;20493;-60
2022/05/05 06:11:13;;;;;;;0.00;0.00;;;;;;;13.46;63.20;101775.72;7357436;19;20014;-61
2022/05/05 06:13:39;;;;;;;0.00;0.00;;;;;;;13.56;63.73;101785.19;7359364;19;20006;-60
2022/05/05 06:16:06;;;;;;;0.00;0.00;;;;;;;13.49;63.58;101775.69;7359727;19;20014;-60
2022/05/05 06:18:32;;;;;;;0.00;0.00;;;;;;;13.63;63.25;101791.16;7360480;19;20007;-61
2022/05/05 06:20:58;;;;;;;0.00;0.00;;;;;;;13.66;63.53;101785.88;7360720;19;20034;-60
2022/05/05 06:23:23;;;;;;;0.00;0.00;;;;;;;13.70;63.42;101798.06;7359701;19;20010;-60
2022/05/05 06:25:49;;;;;;;0.00;0.00;;;;;;;13.70;63.58;101788.44;7369012;19;20010;-60
2022/05/05 06:28:14;;;;;;;0.00;0.00;;;;;;;13.77;63.88;101795.28;7362064;19;20071;-59
2022/05/05 06:30:39;;;;;;;0.00;0.00;;;;;;;13.80;63.65;101794.38;7363646;19;20010;-60
2022/05/05 06:33:05;;;;;;;0.00;0.00;;;;;;;13.72;63.58;101776.13;7364453;19;20034;-60
2022/05/05 06:35:30;;;;;;;0.10;0.10;;;;;;;13.92;63.25;101793.25;7364522;19;20537;-61
2022/05/05 06:37:56;;;;;;;0.00;0.00;;;;;;;13.97;63.37;101801.91;7361319;19;20006;-60
2022/05/05 06:40:21;;;;;;;0.00;0.00;;;;;;;13.93;63.32;101787.13;7365800;19;20014;-60
2022/05/05 06:42:48;;;;;;;0.10;0.10;;;;;;;14.08;63.50;101799.94;7362065;19;20015;-59
2022/05/05 06:45:14;;;;;;;0.00;0.00;;;;;;;14.14;63.44;101798.97;7364333;19;20380;-60
2022/05/05 06:47:40;;;;;;;0.00;0.00;;;;;;;14.21;63.88;101801.44;7361719;19;20030;-60
2022/05/05 06:50:06;;;;;;;0.10;0.10;;;;;;;14.30;63.53;101807.44;7360185;19;20012;-60
2022/05/05 06:52:32;;;;;;;0.03;0.03;;;;;;;14.36;63.79;101795.00;7359136;19;20086;-60
2022/05/05 06:54:57;;;;;;;0.00;0.00;;;;;;;14.48;63.73;101794.78;7362921;19;20070;-60
2022/05/05 06:57:23;;;;;;;0.03;0.03;;;;;;;14.56;63.52;101810.41;7363550;19;20018;-60
2022/05/05 06:59:49;;;;;;;0.00;0.00;;;;;;;14.51;63.88;101778.94;7363038;19;20003;-60
2022/05/05 07:02:14;;;;;;;0.00;0.00;;;;;;;14.73;63.83;101799.50;7362674;19;20002;-60
2022/05/05 07:07:24;;;;;;;0.00;0.00;;;;;;;14.92;63.11;101799.97;7361513;19;20029;-59
2022/05/05 07:12:33;;;;;;;0.10;0.10;;;;;;;15.09;62.64;101808.31;7363518;19;21042;-60
2022/05/05 07:14:59;;;;;;;0.00;0.00;;;;;;;15.15;62.81;101808.16;7364171;19;20006;-59
2022/05/05 07:17:26;;;;;;;0.00;0.00;;;;;;;15.15;62.59;101808.16;7360963;19;20062;-59
2022/05/05 07:19:52;;;;;;;0.00;0.00;;;;;;;15.20;62.67;101811.53;7363953;19;20110;-60
2022/05/05 07:22:18;;;;;;;0.00;0.00;;;;;;;15.13;62.37;101801.22;7362076;19;20872;-60
2022/05/05 07:24:44;;;;;;;0.05;0.05;;;;;;;15.26;62.79;101806.16;7362808;19;19998;-59
2022/05/05 07:27:10;;;;;;;0.10;0.10;;;;;;;15.22;62.37;101799.22;7363662;19;20026;-60
2022/05/05 07:29:41;;;;;;;0.00;0.00;;;;;;;15.32;62.67;101811.25;7362085;19;20147;-60
2022/05/05 07:32:07;;;;;;;0.00;0.00;;;;;;;15.38;62.70;101814.63;7364277;19;22228;-60
2022/05/05 07:34:34;;;;;;;0.05;0.05;;;;;;;15.43;62.72;101820.66;7358713;19;20090;-60
2022/05/05 07:37:00;;;;;;;0.00;0.00;;;;;;;15.49;62.42;101828.38;7363536;19;20029;-59
2022/05/05 07:39:25;;;;;;;0.10;0.10;;;;;;;15.53;61.95;101824.78;7360330;19;20027;-59
2022/05/05 07:41:51;;;;;;;0.10;0.10;;;;;;;15.45;62.50;101805.66;7363296;19;20768;-59
2022/05/05 07:44:16;;;;;;;0.10;0.10;;;;;;;15.61;62.70;101822.81;7363782;19;20009;-60
2022/05/05 07:46:42;;;;;;;0.00;0.00;;;;;;;15.62;62.39;101807.91;7365354;19;20382;-60
2022/05/05 07:49:07;;;;;;;0.10;0.10;;;;;;;15.70;62.23;101800.66;7363302;19;20500;-60
2022/05/05 07:51:34;;;;;;;0.00;0.00;;;;;;;15.77;62.01;101800.47;7359871;19;20028;-60
2022/05/05 07:56:44;;;;;;;0.00;0.00;;;;;;;16.05;61.74;101826.06;7363058;19;20013;-61
2022/05/05 07:59:10;;;;;;;0.00;0.00;;;;;;;16.13;61.51;101826.72;7365023;19;20085;-60
2022/05/05 08:01:36;;;;;;;0.00;0.00;;;;;;;16.21;61.97;101830.00;7351031;19;20018;-60
2022/05/05 08:04:02;;;;;;;0.00;0.00;;;;;;;16.27;61.90;101827.22;7363607;19;20002;-60
2022/05/05 08:06:27;;;;;;;0.03;0.03;;;;;;;16.41;61.57;101820.66;7363867;19;20093;-60
2022/05/05 08:08:53;;;;;;;0.00;0.00;;;;;;;16.42;61.41;101803.94;7365510;19;20073;-60
2022/05/05 08:11:18;;;;;;;0.05;0.05;;;;;;;16.63;61.23;101834.97;7363807;19;20015;-60
2022/05/05 08:13:44;;;;;;;0.10;0.10;;;;;;;16.72;61.04;101834.69;7363680;19;20007;-59
2022/05/05 08:16:10;;;;;;;0.00;0.00;;;;;;;16.80;61.07;101830.06;7364638;19;20010;-59
2022/05/05 08:18:38;;;;;;;0.10;0.10;;;;;;;16.87;60.90;101830.72;7364293;19;20014;-60
2022/05/05 08:21:04;;;;;;;0.03;0.03;;;;;;;16.91;60.93;101827.09;7363788;19;20034;-60
2022/05/05 08:23:29;;;;;;;0.00;0.00;;;;;;;16.97;60.63;101842.72;7363322;19;20795;-59
2022/05/05 08:28:40;;;;;;;0.00;0.00;;;;;;;17.10;60.69;101841.44;7363190;19;20364;-59
2022/05/05 08:31:06;;;;;;;0.00;0.00;;;;;;;17.07;60.29;101830.09;7362816;19;20030;-60
2022/05/05 08:33:31;;;;;;;0.00;0.00;;;;;;;17.26;60.15;101844.44;7363586;19;20955;-60
2022/05/05 08:35:58;;;;;;;0.10;0.10;;;;;;;17.35;60.47;101845.94;7358812;19;20022;-60
2022/05/05 08:38:24;;;;;;;0.10;0.10;;;;;;;17.45;59.98;101843.84;7360184;19;20881;-60
2022/05/05 08:40:50;;;;;;;0.00;0.00;;;;;;;17.47;59.45;101840.25;7361250;19;20026;-59
2022/05/05 08:43:15;;;;;;;0.10;0.10;;;;;;;17.53;59.47;101836.53;7359931;19;20778;-60
2022/05/05 08:45:40;;;;;;;0.00;0.00;;;;;;;17.57;59.79;101838.16;7357902;19;20018;-59
2022/05/05 08:48:08;;;;;;;0.10;0.10;;;;;;;17.65;59.85;101851.97;7355924;19;20011;-59
2022/05/05 08:50:35;;;;;;;0.10;0.10;;;;;;;17.70;59.92;101844.75;7356991;19;20035;-59
2022/05/05 08:53:02;;;;;;;0.00;0.00;;;;;;;17.79;59.97;101855.06;7355285;19;20529;-59
2022/05/05 08:55:28;;;;;;;0.08;0.08;;;;;;;17.89;58.99;101851.19;7358180;19;20396;-60
2022/05/05 08:57:53;;;;;;;0.10;0.10;;;;;;;17.97;58.40;101847.38;7360724;19;20007;-60
2022/05/05 09:00:19;;;;;;;0.03;0.03;;;;;;;17.99;58.27;101850.81;7359004;19;20011;-59
2022/05/05 09:02:45;;;;;;;0.10;0.10;;;;;;;18.00;58.87;101849.94;7360934;19;20003;-59
2022/05/05 09:05:11;;;;;;;0.08;0.08;;;;;;;18.01;58.42;101841.09;7359398;19;20034;-60
2022/05/05 09:07:50;;;;;;;0.00;0.00;;;;;;;18.08;58.31;101845.22;7360674;19;20010;-61
2022/05/05 09:10:18;;;;;;;0.00;0.00;;;;;;;18.10;58.82;101852.19;7357727;19;20010;-61
2022/05/05 09:13:00;;;;;;;0.10;0.10;;;;;;;18.18;58.80;101838.69;7358343;19;20021;-60
2022/05/05 09:15:33;;;;;;;0.10;0.10;;;;;;;18.33;58.39;101843.41;7358227;19;20018;-60
2022/05/05 09:18:15;;;;;;;0.00;0.00;;;;;;;18.50;57.79;101847.22;7358017;19;20010;-60
2022/05/05 09:20:41;;;;;;;0.10;0.10;;;;;;;18.50;57.63;101841.91;7358407;19;20006;-60
2022/05/05 09:23:07;;;;;;;0.00;0.00;;;;;;;18.49;57.79;101840.19;7359264;19;20856;-59
2022/05/05 09:25:48;;;;;;;0.08;0.08;;;;;;;18.46;57.80;101827.09;7359427;19;20066;-60
2022/05/05 09:28:17;;;;;;;0.03;0.03;;;;;;;18.56;58.18;101841.72;7358084;19;20010;-60
2022/05/05 09:30:51;;;;;;;0.10;0.10;;;;;;;18.62;58.30;101846.75;7359504;19;20025;-60
2022/05/05 09:33:38;;;;;;;0.10;0.10;;;;;;;18.70;57.65;101849.13;7357504;19;20724;-60
2022/05/05 09:36:04;;;;;;;0.10;0.10;;;;;;;18.84;57.76;101845.03;7357784;19;20014;-60
2022/05/05 09:38:51;;;;;;;0.00;0.00;;;;;;;19.13;57.88;101841.25;7359376;19;20041;-60
2022/05/05 09:41:17;;;;;;;0.03;0.03;;;;;;;19.27;56.84;101839.84;7256457;19;2004282;-60
2022/05/05 09:43:43;;;;;;;0.10;0.10;;;;;;;19.44;56.77;101837.34;7357258;19;20777;-61
2022/05/05 09:46:25;;;;;;;0.10;0.10;;;;;;;19.73;57.33;101841.44;7358373;19;20017;-60
2022/05/05 09:48:51;;;;;;;0.08;0.08;;;;;;;19.95;56.80;101838.72;7358637;19;20010;-61
2022/05/05 09:51:17;;;;;;;0.10;0.10;;;;;;;20.24;55.54;101834.78;7360355;19;20010;-60
2022/05/05 09:59:20;;;;;;;0.10;0.10;;;;;;;21.02;54.10;101838.25;7363955;19;20109;-60
2022/05/05 10:01:50;;;;;;;0.00;0.00;;;;;;;21.23;53.43;101842.53;7364128;19;20107;-59
2022/05/05 10:04:18;;;;;;;0.00;0.00;;;;;;;21.32;51.92;101842.13;7364842;19;20037;-60
2022/05/05 10:06:44;;;;;;;0.00;0.00;;;;;;;21.35;52.15;101841.97;7362562;19;20015;-60
2022/05/05 10:09:12;;;;;;;0.10;0.10;;;;;;;21.40;51.56;101839.94;7363931;19;20023;-61
2022/05/05 10:11:38;;;;;;;0.00;0.00;;;;;;;21.33;51.74;101827.03;7364035;19;20027;-61
2022/05/05 10:14:11;;;;;;;0.10;0.10;;;;;;;21.43;51.31;101845.09;7365051;19;20033;-60
2022/05/05 10:16:38;;;;;;;0.00;0.00;;;;;;;21.46;50.60;101831.66;7365116;19;20030;-60
2022/05/05 10:19:04;;;;;;;;;;;;;;;21.64;53.20;101843.13;7365181;19;20835;-60
2022/05/05 10:21:51;;;;;;;0.00;0.00;;;;;;;21.66;50.58;101840.44;7364573;19;19922;-60
2022/05/05 10:24:26;;;;;;;0.10;0.10;;;;;;;21.72;51.34;101813.53;7362642;19;20006;-60
2022/05/05 10:26:57;;;;;;;0.10;0.10;;;;;;;21.97;50.96;101832.56;7364836;19;20011;-60
2022/05/05 10:29:32;;;;;;;0.00;0.00;;;;;;;22.18;50.85;101832.41;7363921;19;20574;-61
2022/05/05 10:32:20;;;;;;;0.10;0.10;;;;;;;22.28;50.62;101825.66;7364181;19;20010;-60
2022/05/05 10:34:52;;;;;;;0.00;0.00;;;;;;;22.31;49.98;101827.31;7363894;19;20003;-60
2022/05/05 10:37:18;;;;;;;0.00;0.00;;;;;;;;;;7364858;19;20006;-61
2022/05/05 10:39:45;;;;;;;0.10;0.10;;;;;;;22.23;48.01;101830.38;7364389;19;20003;-60
2022/05/05 10:42:16;;;;;;;0.00;0.00;;;;;;;22.18;48.62;101835.06;7363907;19;20010;-60
2022/05/05 10:45:09;;;;;;;0.10;0.10;;;;;;;22.25;50.19;101837.34;7364411;19;20793;-61
2022/05/05 10:48:01;;;;;;;0.10;0.10;;;;;;;22.31;49.66;101844.13;7261648;19;2004401;-60
2022/05/05 10:50:30;;;;;;;0.10;0.10;;;;;;;22.30;47.72;101837.06;7261555;19;2004602;-60
2022/05/05 10:52:56;;;;;;;0.00;0.00;;;;;;;22.27;48.53;101816.81;7361944;19;20627;-60
2022/05/05 10:55:26;;;;;;;0.00;0.00;;;;;;;22.42;48.04;101825.78;7362308;19;20008;-59
2022/05/05 10:57:52;;;;;;;0.00;0.00;;;;;;;22.44;47.69;101826.53;7365306;19;20014;-60
2022/05/05 11:00:18;;;;;;;0.10;0.10;;;;;;;22.47;47.09;101822.88;7365242;19;20057;-60
2022/05/05 11:03:10;;;;;;;0.10;0.10;;;;;;;22.58;49.03;101819.59;7362370;19;20007;-60
2022/05/05 11:05:39;;;;;;;0.10;0.10;;;;;;;22.61;48.27;101825.63;7363203;19;20014;-60
2022/05/05 11:08:08;;;;;;;0.10;0.10;;;;;;;22.69;47.82;101819.88;7359940;19;20111;-60
2022/05/05 11:13:40;;;;;;;0.10;0.10;;;;;;;22.98;47.84;101824.44;7259049;19;2004414;-61
2022/05/05 11:22:08;;;;;;;0.08;0.08;;;;;;;24.64;47.45;101835.88;7362766;19;20014;-60
2022/05/05 11:24:33;;;;;;;0.10;0.10;;;;;;;24.93;43.52;101824.13;7362086;19;20002;-61
2022/05/05 11:27:00;;;;;;;0.08;0.08;;;;;;;25.25;43.41;101821.22;7363875;19;20041;-61
2022/05/05 11:29:32;;;;;;;0.10;0.10;;;;;;;25.34;43.63;101800.06;7360805;19;20096;-60
2022/05/05 11:32:00;;;;;;;0.00;0.00;;;;;;;25.52;41.26;101823.84;7360962;19;20180;-60
2022/05/05 11:34:34;;;;;;;;;;;;;;;25.74;45.84;101823.22;7363641;19;20035;-60
2022/05/05 11:37:01;;;;;;;0.10;0.10;;;;;;;25.62;41.88;101820.41;7361121;19;20525;-60
2022/05/05 11:39:28;;;;;;;0.10;0.10;;;;;;;25.57;41.04;101821.69;7362688;19;20037;-60
2022/05/05 11:42:00;;;;;;;0.00;0.00;;;;;;;25.54;42.13;101833.44;7362378;19;20041;-61
2022/05/05 11:44:27;;;;;;;0.10;0.10;;;;;;;25.36;40.06;101826.69;7361116;19;20006;-60
2022/05/05 11:46:59;;;;;;;0.00;0.00;;;;;;;25.23;40.82;101829.31;7361956;19;20023;-61
2022/05/05 11:49:32;;;;;;;0.08;0.08;;;;;;;25.08;40.51;101833.84;7359932;19;20038;-60
2022/05/05 11:51:59;;;;;;;0.10;0.10;;;;;;;24.97;40.72;101827.47;7361876;19;20002;-59
2022/05/05 11:54:27;;;;;;;0.00;0.00;;;;;;;24.86;41.14;101836.19;7358673;19;20584;-61
2022/05/05 11:56:53;;;;;;;0.00;0.00;;;;;;;24.66;39.73;101833.94;7361119;19;20003;-60
2022/05/05 12:02:06;;;;;;;0.10;0.10;;;;;;;24.49;41.33;101837.69;7361683;19;20024;-59
2022/05/05 12:04:35;;;;;;;0.00;0.00;;;;;;;24.33;41.72;101832.41;7360789;19;20022;-60
2022/05/05 12:07:00;;;;;;;0.10;0.10;;;;;;;24.17;42.14;101831.66;7360465;19;20026;-60